sensor_id;sensor_type;location;lat;lon;timestamp;P1;durP1;ratioP1;P2;durP2;ratioP2
66402;SDS011;53212;52.112;5.144;2024-03-29T00:00:39;4.40;;;1.70;;
66402;SDS011;53212;52.112;5.144;2024-03-29T00:03:04;6.60;;;1.40;;
66402;SDS011;53212;52.112;5.144;2024-03-29T00:05:30;4.30;;;1.20;;
66402;SDS011;53212;52.112;5.144;2024-03-29T00:07:56;3.10;;;1.30;;
66402;SDS011;53212;52.112;5.144;2024-03-29T00:10:21;5.10;;;1.80;;
66402;SDS011;53212;52.112;5.144;2024-03-29T00:12:47;5.10;;;1.60;;
66402;SDS011;53212;52.112;5.144;2024-03-29T00:15:12;5.00;;;1.30;;
66402;SDS011;53212;52.112;5.144;2024-03-29T00:17:37;4.00;;;1.20;;
66402;SDS011;53212;52.112;5.144;2024-03-29T00:20:04;6.10;;;1.60;;
66402;SDS011;53212;52.112;5.144;2024-03-29T00:22:31;4.80;;;1.50;;
66402;SDS011;53212;52.112;5.144;2024-03-29T00:24:56;8.30;;;1.70;;
66402;SDS011;53212;52.112;5.144;2024-03-29T00:27:22;4.40;;;1.30;;
66402;SDS011;53212;52.112;5.144;2024-03-29T00:29:50;7.10;;;1.30;;
66402;SDS011;53212;52.112;5.144;2024-03-29T00:32:20;6.70;;;1.70;;
66402;SDS011;53212;52.112;5.144;2024-03-29T00:34:48;4.40;;;1.60;;
66402;SDS011;53212;52.112;5.144;2024-03-29T00:37:15;5.90;;;1.50;;
66402;SDS011;53212;52.112;5.144;2024-03-29T00:39:41;5.60;;;1.30;;
66402;SDS011;53212;52.112;5.144;2024-03-29T00:42:07;3.90;;;1.80;;
66402;SDS011;53212;52.112;5.144;2024-03-29T00:44:36;4.40;;;1.50;;
66402;SDS011;53212;52.112;5.144;2024-03-29T00:47:03;4.10;;;1.20;;
66402;SDS011;53212;52.112;5.144;2024-03-29T00:49:29;4.50;;;1.30;;
66402;SDS011;53212;52.112;5.144;2024-03-29T00:51:55;2.80;;;1.30;;
66402;SDS011;53212;52.112;5.144;2024-03-29T00:54:21;3.90;;;1.30;;
66402;SDS011;53212;52.112;5.144;2024-03-29T00:56:48;4.70;;;1.30;;
66402;SDS011;53212;52.112;5.144;2024-03-29T00:59:14;5.70;;;1.70;;
66402;SDS011;53212;52.112;5.144;2024-03-29T01:01:39;4.50;;;1.30;;
66402;SDS011;53212;52.112;5.144;2024-03-29T01:04:04;2.90;;;1.30;;
66402;SDS011;53212;52.112;5.144;2024-03-29T01:06:30;3.70;;;1.10;;
66402;SDS011;53212;52.112;5.144;2024-03-29T01:08:55;3.70;;;1.10;;
66402;SDS011;53212;52.112;5.144;2024-03-29T01:11:21;4.40;;;1.20;;
66402;SDS011;53212;52.112;5.144;2024-03-29T01:13:47;3.50;;;1.30;;
66402;SDS011;53212;52.112;5.144;2024-03-29T01:16:12;3.60;;;1.40;;
66402;SDS011;53212;52.112;5.144;2024-03-29T01:18:37;4.00;;;1.30;;
66402;SDS011;53212;52.112;5.144;2024-03-29T01:21:04;3.90;;;1.10;;
66402;SDS011;53212;52.112;5.144;2024-03-29T01:23:29;5.20;;;1.30;;
66402;SDS011;53212;52.112;5.144;2024-03-29T01:25:55;3.90;;;1.60;;
66402;SDS011;53212;52.112;5.144;2024-03-29T01:28:20;6.20;;;1.60;;
66402;SDS011;53212;52.112;5.144;2024-03-29T01:30:52;3.50;;;1.30;;
66402;SDS011;53212;52.112;5.144;2024-03-29T01:33:18;5.50;;;1.30;;
66402;SDS011;53212;52.112;5.144;2024-03-29T01:35:43;2.90;;;1.10;;
66402;SDS011;53212;52.112;5.144;2024-03-29T01:38:09;3.00;;;1.10;;
66402;SDS011;53212;52.112;5.144;2024-03-29T01:40:34;4.40;;;1.60;;
66402;SDS011;53212;52.112;5.144;2024-03-29T01:43:01;4.50;;;1.50;;
66402;SDS011;53212;52.112;5.144;2024-03-29T01:45:27;2.50;;;1.00;;
66402;SDS011;53212;52.112;5.144;2024-03-29T01:47:53;3.40;;;1.50;;
66402;SDS011;53212;52.112;5.144;2024-03-29T01:50:19;2.90;;;1.10;;
66402;SDS011;53212;52.112;5.144;2024-03-29T01:52:45;5.10;;;1.40;;
66402;SDS011;53212;52.112;5.144;2024-03-29T01:55:11;4.60;;;1.20;;
66402;SDS011;53212;52.112;5.144;2024-03-29T01:57:36;3.90;;;1.10;;
66402;SDS011;53212;52.112;5.144;2024-03-29T02:00:03;3.30;;;1.20;;
66402;SDS011;53212;52.112;5.144;2024-03-29T02:02:31;2.80;;;1.50;;
66402;SDS011;53212;52.112;5.144;2024-03-29T02:04:58;3.60;;;1.10;;
66402;SDS011;53212;52.112;5.144;2024-03-29T02:07:24;2.90;;;1.10;;
66402;SDS011;53212;52.112;5.144;2024-03-29T02:09:50;5.90;;;1.20;;
66402;SDS011;53212;52.112;5.144;2024-03-29T02:12:16;2.30;;;1.00;;
66402;SDS011;53212;52.112;5.144;2024-03-29T02:14:41;3.60;;;1.10;;
66402;SDS011;53212;52.112;5.144;2024-03-29T02:17:08;5.30;;;1.40;;
66402;SDS011;53212;52.112;5.144;2024-03-29T02:19:34;4.20;;;1.20;;
66402;SDS011;53212;52.112;5.144;2024-03-29T02:21:59;4.20;;;1.20;;
66402;SDS011;53212;52.112;5.144;2024-03-29T02:24:27;3.80;;;1.00;;
66402;SDS011;53212;52.112;5.144;2024-03-29T02:26:56;3.80;;;1.20;;
66402;SDS011;53212;52.112;5.144;2024-03-29T02:29:23;5.20;;;1.60;;
66402;SDS011;53212;52.112;5.144;2024-03-29T02:31:49;4.90;;;1.50;;
66402;SDS011;53212;52.112;5.144;2024-03-29T02:34:15;4.20;;;1.10;;
66402;SDS011;53212;52.112;5.144;2024-03-29T02:36:40;3.00;;;1.40;;
66402;SDS011;53212;52.112;5.144;2024-03-29T02:39:08;6.10;;;1.50;;
66402;SDS011;53212;52.112;5.144;2024-03-29T02:41:33;3.30;;;1.10;;
66402;SDS011;53212;52.112;5.144;2024-03-29T02:43:59;4.20;;;1.50;;
66402;SDS011;53212;52.112;5.144;2024-03-29T02:46:24;7.90;;;1.50;;
66402;SDS011;53212;52.112;5.144;2024-03-29T02:48:49;3.30;;;1.10;;
66402;SDS011;53212;52.112;5.144;2024-03-29T02:51:15;2.50;;;0.90;;
66402;SDS011;53212;52.112;5.144;2024-03-29T02:53:40;4.20;;;1.20;;
66402;SDS011;53212;52.112;5.144;2024-03-29T02:56:06;3.60;;;1.60;;
66402;SDS011;53212;52.112;5.144;2024-03-29T02:58:36;3.90;;;1.40;;
66402;SDS011;53212;52.112;5.144;2024-03-29T03:01:08;5.30;;;1.30;;
66402;SDS011;53212;52.112;5.144;2024-03-29T03:03:35;3.60;;;1.30;;
66402;SDS011;53212;52.112;5.144;2024-03-29T03:06:01;3.70;;;1.10;;
66402;SDS011;53212;52.112;5.144;2024-03-29T03:08:28;3.80;;;1.30;;
66402;SDS011;53212;52.112;5.144;2024-03-29T03:11:13;4.70;;;1.30;;
66402;SDS011;53212;52.112;5.144;2024-03-29T03:13:38;5.70;;;1.10;;
66402;SDS011;53212;52.112;5.144;2024-03-29T03:16:04;4.20;;;1.30;;
66402;SDS011;53212;52.112;5.144;2024-03-29T03:18:30;5.00;;;1.10;;
66402;SDS011;53212;52.112;5.144;2024-03-29T03:20:56;3.00;;;1.20;;
66402;SDS011;53212;52.112;5.144;2024-03-29T03:23:25;2.90;;;1.10;;
66402;SDS011;53212;52.112;5.144;2024-03-29T03:25:55;6.20;;;1.40;;
66402;SDS011;53212;52.112;5.144;2024-03-29T03:28:21;3.30;;;1.20;;
66402;SDS011;53212;52.112;5.144;2024-03-29T03:30:51;4.20;;;1.10;;
66402;SDS011;53212;52.112;5.144;2024-03-29T03:33:18;4.50;;;1.30;;
66402;SDS011;53212;52.112;5.144;2024-03-29T03:35:44;1.30;;;0.90;;
66402;SDS011;53212;52.112;5.144;2024-03-29T03:38:09;2.50;;;0.90;;
66402;SDS011;53212;52.112;5.144;2024-03-29T03:40:36;2.80;;;1.10;;
66402;SDS011;53212;52.112;5.144;2024-03-29T03:43:02;3.80;;;1.30;;
66402;SDS011;53212;52.112;5.144;2024-03-29T03:45:28;2.00;;;0.90;;
66402;SDS011;53212;52.112;5.144;2024-03-29T03:47:54;3.20;;;1.10;;
66402;SDS011;53212;52.112;5.144;2024-03-29T03:50:19;2.70;;;1.00;;
66402;SDS011;53212;52.112;5.144;2024-03-29T03:52:45;2.60;;;0.90;;
66402;SDS011;53212;52.112;5.144;2024-03-29T03:55:10;2.50;;;1.10;;
66402;SDS011;53212;52.112;5.144;2024-03-29T03:57:36;3.00;;;0.90;;
66402;SDS011;53212;52.112;5.144;2024-03-29T04:00:01;2.80;;;0.90;;
66402;SDS011;53212;52.112;5.144;2024-03-29T04:02:28;2.20;;;0.90;;
66402;SDS011;53212;52.112;5.144;2024-03-29T04:04:53;4.20;;;1.20;;
66402;SDS011;53212;52.112;5.144;2024-03-29T04:07:19;2.60;;;1.00;;
66402;SDS011;53212;52.112;5.144;2024-03-29T04:09:45;1.90;;;1.10;;
66402;SDS011;53212;52.112;5.144;2024-03-29T04:12:10;3.00;;;1.10;;
66402;SDS011;53212;52.112;5.144;2024-03-29T04:14:36;3.80;;;0.90;;
66402;SDS011;53212;52.112;5.144;2024-03-29T04:17:01;4.20;;;1.20;;
66402;SDS011;53212;52.112;5.144;2024-03-29T04:19:27;4.30;;;1.10;;
66402;SDS011;53212;52.112;5.144;2024-03-29T04:21:52;3.30;;;1.20;;
66402;SDS011;53212;52.112;5.144;2024-03-29T04:24:18;1.50;;;1.00;;
66402;SDS011;53212;52.112;5.144;2024-03-29T04:26:43;1.90;;;1.00;;
66402;SDS011;53212;52.112;5.144;2024-03-29T04:29:10;2.40;;;0.70;;
66402;SDS011;53212;52.112;5.144;2024-03-29T04:31:36;4.80;;;1.40;;
66402;SDS011;53212;52.112;5.144;2024-03-29T04:34:01;3.20;;;1.50;;
66402;SDS011;53212;52.112;5.144;2024-03-29T04:36:27;2.70;;;0.80;;
66402;SDS011;53212;52.112;5.144;2024-03-29T04:38:52;1.50;;;0.70;;
66402;SDS011;53212;52.112;5.144;2024-03-29T04:41:18;2.10;;;0.90;;
66402;SDS011;53212;52.112;5.144;2024-03-29T04:43:44;1.90;;;0.80;;
66402;SDS011;53212;52.112;5.144;2024-03-29T04:46:11;1.80;;;0.80;;
66402;SDS011;53212;52.112;5.144;2024-03-29T04:48:39;2.50;;;0.90;;
66402;SDS011;53212;52.112;5.144;2024-03-29T04:51:07;1.20;;;0.80;;
66402;SDS011;53212;52.112;5.144;2024-03-29T04:53:35;1.90;;;0.60;;
66402;SDS011;53212;52.112;5.144;2024-03-29T04:56:04;2.10;;;0.60;;
66402;SDS011;53212;52.112;5.144;2024-03-29T04:58:31;1.90;;;0.50;;
66402;SDS011;53212;52.112;5.144;2024-03-29T05:00:57;1.60;;;0.70;;
66402;SDS011;53212;52.112;5.144;2024-03-29T05:03:22;1.60;;;0.50;;
66402;SDS011;53212;52.112;5.144;2024-03-29T05:05:52;1.00;;;0.50;;
66402;SDS011;53212;52.112;5.144;2024-03-29T05:08:18;1.70;;;0.70;;
66402;SDS011;53212;52.112;5.144;2024-03-29T05:10:46;0.70;;;0.50;;
66402;SDS011;53212;52.112;5.144;2024-03-29T05:13:12;1.10;;;0.40;;
66402;SDS011;53212;52.112;5.144;2024-03-29T05:15:37;1.40;;;0.50;;
66402;SDS011;53212;52.112;5.144;2024-03-29T05:18:03;0.80;;;0.50;;
66402;SDS011;53212;52.112;5.144;2024-03-29T05:20:30;2.20;;;0.60;;
66402;SDS011;53212;52.112;5.144;2024-03-29T05:22:57;0.70;;;0.40;;
66402;SDS011;53212;52.112;5.144;2024-03-29T05:25:23;1.20;;;0.70;;
66402;SDS011;53212;52.112;5.144;2024-03-29T05:27:48;0.80;;;0.60;;
66402;SDS011;53212;52.112;5.144;2024-03-29T05:30:14;1.40;;;0.70;;
66402;SDS011;53212;52.112;5.144;2024-03-29T05:32:39;1.90;;;0.60;;
66402;SDS011;53212;52.112;5.144;2024-03-29T05:35:05;2.10;;;0.60;;
66402;SDS011;53212;52.112;5.144;2024-03-29T05:37:31;1.10;;;0.70;;
66402;SDS011;53212;52.112;5.144;2024-03-29T05:39:56;1.80;;;0.60;;
66402;SDS011;53212;52.112;5.144;2024-03-29T05:42:25;1.70;;;0.80;;
66402;SDS011;53212;52.112;5.144;2024-03-29T05:44:55;1.10;;;0.50;;
66402;SDS011;53212;52.112;5.144;2024-03-29T05:47:20;2.40;;;0.60;;
66402;SDS011;53212;52.112;5.144;2024-03-29T05:49:47;1.40;;;0.80;;
66402;SDS011;53212;52.112;5.144;2024-03-29T05:52:13;1.20;;;0.50;;
66402;SDS011;53212;52.112;5.144;2024-03-29T05:54:40;1.40;;;0.60;;
66402;SDS011;53212;52.112;5.144;2024-03-29T05:57:06;3.00;;;1.10;;
66402;SDS011;53212;52.112;5.144;2024-03-29T05:59:35;1.30;;;0.60;;
66402;SDS011;53212;52.112;5.144;2024-03-29T06:02:01;1.60;;;0.60;;
66402;SDS011;53212;52.112;5.144;2024-03-29T06:04:27;1.60;;;0.50;;
66402;SDS011;53212;52.112;5.144;2024-03-29T06:07:04;1.60;;;0.70;;
66402;SDS011;53212;52.112;5.144;2024-03-29T06:09:30;2.80;;;0.70;;
66402;SDS011;53212;52.112;5.144;2024-03-29T06:11:58;1.30;;;0.70;;
66402;SDS011;53212;52.112;5.144;2024-03-29T06:14:24;2.20;;;0.90;;
66402;SDS011;53212;52.112;5.144;2024-03-29T06:17:08;2.00;;;1.00;;
66402;SDS011;53212;52.112;5.144;2024-03-29T06:19:54;1.10;;;0.70;;
66402;SDS011;53212;52.112;5.144;2024-03-29T06:22:22;1.70;;;1.10;;
66402;SDS011;53212;52.112;5.144;2024-03-29T06:24:49;1.20;;;0.70;;
66402;SDS011;53212;52.112;5.144;2024-03-29T06:27:17;0.80;;;0.70;;
66402;SDS011;53212;52.112;5.144;2024-03-29T06:29:46;1.30;;;0.80;;
66402;SDS011;53212;52.112;5.144;2024-03-29T06:32:12;1.60;;;0.90;;
66402;SDS011;53212;52.112;5.144;2024-03-29T06:34:37;1.20;;;0.80;;
66402;SDS011;53212;52.112;5.144;2024-03-29T06:37:03;1.60;;;0.60;;
66402;SDS011;53212;52.112;5.144;2024-03-29T06:39:28;1.20;;;0.70;;
66402;SDS011;53212;52.112;5.144;2024-03-29T06:41:54;2.90;;;0.90;;
66402;SDS011;53212;52.112;5.144;2024-03-29T06:44:20;1.40;;;0.70;;
66402;SDS011;53212;52.112;5.144;2024-03-29T06:46:48;1.20;;;1.00;;
66402;SDS011;53212;52.112;5.144;2024-03-29T06:49:14;1.20;;;0.70;;
66402;SDS011;53212;52.112;5.144;2024-03-29T06:51:40;1.50;;;0.70;;
66402;SDS011;53212;52.112;5.144;2024-03-29T06:54:06;2.80;;;0.80;;
66402;SDS011;53212;52.112;5.144;2024-03-29T06:56:31;1.00;;;0.60;;
66402;SDS011;53212;52.112;5.144;2024-03-29T06:58:57;1.40;;;0.80;;
66402;SDS011;53212;52.112;5.144;2024-03-29T07:01:23;0.90;;;0.60;;
66402;SDS011;53212;52.112;5.144;2024-03-29T07:03:48;0.80;;;0.80;;
66402;SDS011;53212;52.112;5.144;2024-03-29T07:06:14;1.40;;;0.60;;
66402;SDS011;53212;52.112;5.144;2024-03-29T07:08:40;1.10;;;0.70;;
66402;SDS011;53212;52.112;5.144;2024-03-29T07:11:05;1.10;;;0.70;;
66402;SDS011;53212;52.112;5.144;2024-03-29T07:13:31;1.70;;;0.70;;
66402;SDS011;53212;52.112;5.144;2024-03-29T07:15:58;1.20;;;0.70;;
66402;SDS011;53212;52.112;5.144;2024-03-29T07:18:24;0.80;;;0.70;;
66402;SDS011;53212;52.112;5.144;2024-03-29T07:20:50;1.40;;;0.60;;
66402;SDS011;53212;52.112;5.144;2024-03-29T07:23:16;1.60;;;0.60;;
66402;SDS011;53212;52.112;5.144;2024-03-29T07:25:56;1.10;;;0.90;;
66402;SDS011;53212;52.112;5.144;2024-03-29T07:28:31;1.80;;;0.70;;
66402;SDS011;53212;52.112;5.144;2024-03-29T07:30:57;2.60;;;0.90;;
66402;SDS011;53212;52.112;5.144;2024-03-29T07:33:24;0.80;;;0.80;;
66402;SDS011;53212;52.112;5.144;2024-03-29T07:35:54;1.70;;;0.90;;
66402;SDS011;53212;52.112;5.144;2024-03-29T07:38:21;1.50;;;0.70;;
66402;SDS011;53212;52.112;5.144;2024-03-29T07:40:48;1.30;;;0.70;;
66402;SDS011;53212;52.112;5.144;2024-03-29T07:43:14;3.20;;;0.70;;
66402;SDS011;53212;52.112;5.144;2024-03-29T07:45:41;2.10;;;0.60;;
66402;SDS011;53212;52.112;5.144;2024-03-29T07:48:16;0.50;;;0.50;;
66402;SDS011;53212;52.112;5.144;2024-03-29T07:50:43;1.20;;;0.70;;
66402;SDS011;53212;52.112;5.144;2024-03-29T07:53:10;1.20;;;0.70;;
66402;SDS011;53212;52.112;5.144;2024-03-29T07:55:38;0.70;;;0.60;;
66402;SDS011;53212;52.112;5.144;2024-03-29T07:58:05;0.80;;;0.50;;
66402;SDS011;53212;52.112;5.144;2024-03-29T08:00:31;3.10;;;0.70;;
66402;SDS011;53212;52.112;5.144;2024-03-29T08:02:57;2.20;;;0.70;;
66402;SDS011;53212;52.112;5.144;2024-03-29T08:05:23;1.00;;;0.50;;
66402;SDS011;53212;52.112;5.144;2024-03-29T08:07:49;0.60;;;0.60;;
66402;SDS011;53212;52.112;5.144;2024-03-29T08:10:14;0.50;;;0.50;;
66402;SDS011;53212;52.112;5.144;2024-03-29T08:12:40;0.80;;;0.60;;
66402;SDS011;53212;52.112;5.144;2024-03-29T08:15:05;1.00;;;0.60;;
66402;SDS011;53212;52.112;5.144;2024-03-29T08:17:32;0.50;;;0.50;;
66402;SDS011;53212;52.112;5.144;2024-03-29T08:19:58;0.60;;;0.60;;
66402;SDS011;53212;52.112;5.144;2024-03-29T08:22:23;0.50;;;0.50;;
66402;SDS011;53212;52.112;5.144;2024-03-29T08:24:48;1.40;;;0.70;;
66402;SDS011;53212;52.112;5.144;2024-03-29T08:27:14;0.80;;;0.40;;
66402;SDS011;53212;52.112;5.144;2024-03-29T08:29:43;1.60;;;0.60;;
66402;SDS011;53212;52.112;5.144;2024-03-29T08:32:08;0.60;;;0.50;;
66402;SDS011;53212;52.112;5.144;2024-03-29T08:34:38;0.90;;;0.60;;
66402;SDS011;53212;52.112;5.144;2024-03-29T08:37:04;2.10;;;0.70;;
66402;SDS011;53212;52.112;5.144;2024-03-29T08:39:30;2.10;;;0.80;;
66402;SDS011;53212;52.112;5.144;2024-03-29T08:41:59;2.00;;;0.70;;
66402;SDS011;53212;52.112;5.144;2024-03-29T08:44:30;1.80;;;0.80;;
66402;SDS011;53212;52.112;5.144;2024-03-29T08:46:56;0.50;;;0.50;;
66402;SDS011;53212;52.112;5.144;2024-03-29T08:49:23;2.10;;;0.80;;
66402;SDS011;53212;52.112;5.144;2024-03-29T08:51:49;0.60;;;0.50;;
66402;SDS011;53212;52.112;5.144;2024-03-29T08:54:15;1.40;;;0.60;;
66402;SDS011;53212;52.112;5.144;2024-03-29T08:56:41;0.40;;;0.40;;
66402;SDS011;53212;52.112;5.144;2024-03-29T08:59:06;1.00;;;0.50;;
66402;SDS011;53212;52.112;5.144;2024-03-29T09:01:41;1.20;;;0.50;;
66402;SDS011;53212;52.112;5.144;2024-03-29T09:04:07;1.00;;;0.60;;
66402;SDS011;53212;52.112;5.144;2024-03-29T09:06:37;2.10;;;0.50;;
66402;SDS011;53212;52.112;5.144;2024-03-29T09:09:04;1.00;;;0.60;;
66402;SDS011;53212;52.112;5.144;2024-03-29T09:11:30;0.80;;;0.50;;
66402;SDS011;53212;52.112;5.144;2024-03-29T09:13:55;0.70;;;0.50;;
66402;SDS011;53212;52.112;5.144;2024-03-29T09:16:23;0.90;;;0.70;;
66402;SDS011;53212;52.112;5.144;2024-03-29T09:18:54;1.00;;;0.60;;
66402;SDS011;53212;52.112;5.144;2024-03-29T09:21:20;0.60;;;0.50;;
66402;SDS011;53212;52.112;5.144;2024-03-29T09:23:46;0.80;;;0.50;;
66402;SDS011;53212;52.112;5.144;2024-03-29T09:26:14;0.50;;;0.50;;
66402;SDS011;53212;52.112;5.144;2024-03-29T09:28:40;0.40;;;0.40;;
66402;SDS011;53212;52.112;5.144;2024-03-29T09:31:06;19.70;;;2.00;;
66402;SDS011;53212;52.112;5.144;2024-03-29T09:33:34;2.30;;;0.50;;
66402;SDS011;53212;52.112;5.144;2024-03-29T09:36:00;0.60;;;0.40;;
66402;SDS011;53212;52.112;5.144;2024-03-29T09:38:28;1.30;;;0.50;;
66402;SDS011;53212;52.112;5.144;2024-03-29T09:41:14;0.90;;;0.40;;
66402;SDS011;53212;52.112;5.144;2024-03-29T09:43:42;2.80;;;0.40;;
66402;SDS011;53212;52.112;5.144;2024-03-29T09:46:11;1.10;;;0.60;;
66402;SDS011;53212;52.112;5.144;2024-03-29T09:48:41;1.40;;;0.60;;
66402;SDS011;53212;52.112;5.144;2024-03-29T09:51:08;2.10;;;0.70;;
66402;SDS011;53212;52.112;5.144;2024-03-29T09:53:36;1.30;;;0.90;;
66402;SDS011;53212;52.112;5.144;2024-03-29T09:56:05;1.90;;;0.80;;
66402;SDS011;53212;52.112;5.144;2024-03-29T09:58:33;3.10;;;1.10;;
66402;SDS011;53212;52.112;5.144;2024-03-29T10:01:00;1.80;;;0.90;;
66402;SDS011;53212;52.112;5.144;2024-03-29T10:03:28;2.00;;;0.90;;
66402;SDS011;53212;52.112;5.144;2024-03-29T10:05:58;1.10;;;0.90;;
66402;SDS011;53212;52.112;5.144;2024-03-29T10:08:28;2.70;;;0.90;;
66402;SDS011;53212;52.112;5.144;2024-03-29T10:10:58;2.90;;;1.10;;
66402;SDS011;53212;52.112;5.144;2024-03-29T10:13:24;1.60;;;1.10;;
66402;SDS011;53212;52.112;5.144;2024-03-29T10:15:51;1.50;;;1.00;;
66402;SDS011;53212;52.112;5.144;2024-03-29T10:18:19;1.90;;;1.00;;
66402;SDS011;53212;52.112;5.144;2024-03-29T10:21:07;2.00;;;0.90;;
66402;SDS011;53212;52.112;5.144;2024-03-29T10:23:33;1.60;;;0.70;;
66402;SDS011;53212;52.112;5.144;2024-03-29T10:26:03;2.00;;;1.00;;
66402;SDS011;53212;52.112;5.144;2024-03-29T10:28:33;2.00;;;1.20;;
66402;SDS011;53212;52.112;5.144;2024-03-29T10:31:04;1.10;;;1.00;;
66402;SDS011;53212;52.112;5.144;2024-03-29T10:33:33;3.60;;;1.10;;
66402;SDS011;53212;52.112;5.144;2024-03-29T10:36:00;2.90;;;1.20;;
66402;SDS011;53212;52.112;5.144;2024-03-29T10:38:29;0.80;;;0.80;;
66402;SDS011;53212;52.112;5.144;2024-03-29T10:40:55;1.90;;;1.00;;
66402;SDS011;53212;52.112;5.144;2024-03-29T10:43:21;2.60;;;1.00;;
66402;SDS011;53212;52.112;5.144;2024-03-29T10:45:49;2.90;;;1.20;;
66402;SDS011;53212;52.112;5.144;2024-03-29T10:48:16;3.10;;;1.00;;
66402;SDS011;53212;52.112;5.144;2024-03-29T10:50:43;1.20;;;0.80;;
66402;SDS011;53212;52.112;5.144;2024-03-29T10:53:10;1.40;;;1.00;;
66402;SDS011;53212;52.112;5.144;2024-03-29T10:55:38;1.70;;;1.00;;
66402;SDS011;53212;52.112;5.144;2024-03-29T10:58:05;1.70;;;0.90;;
66402;SDS011;53212;52.112;5.144;2024-03-29T11:00:37;1.10;;;1.00;;
66402;SDS011;53212;52.112;5.144;2024-03-29T11:03:13;1.30;;;0.90;;
66402;SDS011;53212;52.112;5.144;2024-03-29T11:05:46;0.80;;;0.80;;
66402;SDS011;53212;52.112;5.144;2024-03-29T11:08:19;1.60;;;1.00;;
66402;SDS011;53212;52.112;5.144;2024-03-29T11:10:49;1.00;;;0.80;;
66402;SDS011;53212;52.112;5.144;2024-03-29T11:16:15;1.80;;;0.90;;
66402;SDS011;53212;52.112;5.144;2024-03-29T11:18:41;2.30;;;1.00;;
66402;SDS011;53212;52.112;5.144;2024-03-29T11:21:08;2.50;;;0.80;;
66402;SDS011;53212;52.112;5.144;2024-03-29T11:23:36;0.90;;;0.80;;
66402;SDS011;53212;52.112;5.144;2024-03-29T11:26:01;1.00;;;0.70;;
66402;SDS011;53212;52.112;5.144;2024-03-29T11:28:33;2.90;;;0.90;;
66402;SDS011;53212;52.112;5.144;2024-03-29T11:31:07;1.30;;;0.70;;
66402;SDS011;53212;52.112;5.144;2024-03-29T11:38:44;1.10;;;0.80;;
66402;SDS011;53212;52.112;5.144;2024-03-29T11:41:12;5.30;;;1.20;;
66402;SDS011;53212;52.112;5.144;2024-03-29T11:43:39;1.10;;;0.90;;
66402;SDS011;53212;52.112;5.144;2024-03-29T11:46:12;0.80;;;0.80;;
66402;SDS011;53212;52.112;5.144;2024-03-29T11:48:39;1.20;;;0.80;;
66402;SDS011;53212;52.112;5.144;2024-03-29T11:51:07;1.10;;;0.90;;
66402;SDS011;53212;52.112;5.144;2024-03-29T11:53:36;2.20;;;1.10;;
66402;SDS011;53212;52.112;5.144;2024-03-29T11:56:03;2.40;;;1.10;;
66402;SDS011;53212;52.112;5.144;2024-03-29T11:58:30;2.20;;;1.10;;
66402;SDS011;53212;52.112;5.144;2024-03-29T12:00:58;1.30;;;1.20;;
66402;SDS011;53212;52.112;5.144;2024-03-29T12:03:28;1.30;;;1.20;;
66402;SDS011;53212;52.112;5.144;2024-03-29T12:05:56;2.20;;;1.30;;
66402;SDS011;53212;52.112;5.144;2024-03-29T12:08:34;1.60;;;1.40;;
66402;SDS011;53212;52.112;5.144;2024-03-29T12:11:03;2.00;;;1.30;;
66402;SDS011;53212;52.112;5.144;2024-03-29T12:13:29;2.00;;;1.50;;
66402;SDS011;53212;52.112;5.144;2024-03-29T12:15:55;1.50;;;1.40;;
66402;SDS011;53212;52.112;5.144;2024-03-29T12:18:23;1.60;;;1.50;;
66402;SDS011;53212;52.112;5.144;2024-03-29T12:20:51;2.50;;;1.80;;
66402;SDS011;53212;52.112;5.144;2024-03-29T12:23:21;1.80;;;1.60;;
66402;SDS011;53212;52.112;5.144;2024-03-29T12:25:48;3.00;;;1.70;;
66402;SDS011;53212;52.112;5.144;2024-03-29T12:28:15;1.80;;;1.70;;
66402;SDS011;53212;52.112;5.144;2024-03-29T12:30:43;2.00;;;1.70;;
66402;SDS011;53212;52.112;5.144;2024-03-29T12:33:15;2.20;;;2.00;;
66402;SDS011;53212;52.112;5.144;2024-03-29T12:35:45;1.60;;;1.50;;
66402;SDS011;53212;52.112;5.144;2024-03-29T12:38:17;1.70;;;1.60;;
66402;SDS011;53212;52.112;5.144;2024-03-29T12:40:44;1.90;;;1.80;;
66402;SDS011;53212;52.112;5.144;2024-03-29T12:43:13;2.40;;;1.60;;
66402;SDS011;53212;52.112;5.144;2024-03-29T12:45:40;3.00;;;1.90;;
66402;SDS011;53212;52.112;5.144;2024-03-29T12:48:17;1.70;;;1.60;;
66402;SDS011;53212;52.112;5.144;2024-03-29T12:50:48;1.70;;;1.60;;
66402;SDS011;53212;52.112;5.144;2024-03-29T12:53:15;2.00;;;1.80;;
66402;SDS011;53212;52.112;5.144;2024-03-29T12:55:42;2.40;;;2.00;;
66402;SDS011;53212;52.112;5.144;2024-03-29T12:58:15;1.90;;;1.70;;
66402;SDS011;53212;52.112;5.144;2024-03-29T13:00:43;2.10;;;1.90;;
66402;SDS011;53212;52.112;5.144;2024-03-29T13:03:09;1.80;;;1.70;;
66402;SDS011;53212;52.112;5.144;2024-03-29T13:05:36;1.90;;;1.80;;
66402;SDS011;53212;52.112;5.144;2024-03-29T13:08:09;2.30;;;2.10;;
66402;SDS011;53212;52.112;5.144;2024-03-29T13:10:39;2.30;;;1.80;;
66402;SDS011;53212;52.112;5.144;2024-03-29T13:13:05;2.80;;;2.30;;
66402;SDS011;53212;52.112;5.144;2024-03-29T13:15:33;2.20;;;2.00;;
66402;SDS011;53212;52.112;5.144;2024-03-29T13:18:00;3.10;;;2.20;;
66402;SDS011;53212;52.112;5.144;2024-03-29T13:20:25;2.40;;;2.20;;
66402;SDS011;53212;52.112;5.144;2024-03-29T13:22:51;2.40;;;2.20;;
66402;SDS011;53212;52.112;5.144;2024-03-29T13:25:19;2.40;;;2.20;;
66402;SDS011;53212;52.112;5.144;2024-03-29T13:27:47;2.80;;;2.60;;
66402;SDS011;53212;52.112;5.144;2024-03-29T13:30:14;2.70;;;2.30;;
66402;SDS011;53212;52.112;5.144;2024-03-29T13:32:41;2.90;;;2.20;;
66402;SDS011;53212;52.112;5.144;2024-03-29T13:35:08;2.20;;;2.00;;
66402;SDS011;53212;52.112;5.144;2024-03-29T13:37:42;2.30;;;2.00;;
66402;SDS011;53212;52.112;5.144;2024-03-29T13:40:11;2.20;;;1.60;;
66402;SDS011;53212;52.112;5.144;2024-03-29T13:42:37;1.80;;;1.70;;
66402;SDS011;53212;52.112;5.144;2024-03-29T13:45:04;1.70;;;1.60;;
66402;SDS011;53212;52.112;5.144;2024-03-29T13:47:32;2.00;;;1.50;;
66402;SDS011;53212;52.112;5.144;2024-03-29T13:52:27;1.80;;;1.40;;
66402;SDS011;53212;52.112;5.144;2024-03-29T13:54:53;1.80;;;1.70;;
66402;SDS011;53212;52.112;5.144;2024-03-29T13:57:19;2.10;;;1.90;;
66402;SDS011;53212;52.112;5.144;2024-03-29T13:59:44;2.50;;;1.70;;
66402;SDS011;53212;52.112;5.144;2024-03-29T14:02:16;2.80;;;1.60;;
66402;SDS011;53212;52.112;5.144;2024-03-29T14:04:43;1.90;;;1.70;;
66402;SDS011;53212;52.112;5.144;2024-03-29T14:07:10;1.80;;;1.70;;
66402;SDS011;53212;52.112;5.144;2024-03-29T14:09:38;2.50;;;1.70;;
66402;SDS011;53212;52.112;5.144;2024-03-29T14:12:05;2.90;;;1.40;;
66402;SDS011;53212;52.112;5.144;2024-03-29T14:14:31;2.00;;;1.70;;
66402;SDS011;53212;52.112;5.144;2024-03-29T14:16:57;1.70;;;1.60;;
66402;SDS011;53212;52.112;5.144;2024-03-29T14:19:23;1.70;;;1.50;;
66402;SDS011;53212;52.112;5.144;2024-03-29T14:21:49;1.90;;;1.60;;
66402;SDS011;53212;52.112;5.144;2024-03-29T14:24:14;1.70;;;1.30;;
66402;SDS011;53212;52.112;5.144;2024-03-29T14:26:41;2.10;;;1.10;;
66402;SDS011;53212;52.112;5.144;2024-03-29T14:29:08;2.70;;;1.30;;
66402;SDS011;53212;52.112;5.144;2024-03-29T14:31:33;1.50;;;1.30;;
66402;SDS011;53212;52.112;5.144;2024-03-29T14:33:59;1.20;;;1.20;;
66402;SDS011;53212;52.112;5.144;2024-03-29T14:36:24;1.50;;;1.20;;
66402;SDS011;53212;52.112;5.144;2024-03-29T14:38:50;1.00;;;1.00;;
66402;SDS011;53212;52.112;5.144;2024-03-29T14:41:16;0.90;;;0.90;;
66402;SDS011;53212;52.112;5.144;2024-03-29T14:43:43;2.10;;;2.00;;
66402;SDS011;53212;52.112;5.144;2024-03-29T14:46:11;1.50;;;0.90;;
66402;SDS011;53212;52.112;5.144;2024-03-29T14:48:37;1.10;;;1.10;;
66402;SDS011;53212;52.112;5.144;2024-03-29T14:51:02;1.10;;;1.00;;
66402;SDS011;53212;52.112;5.144;2024-03-29T14:53:28;1.10;;;0.90;;
66402;SDS011;53212;52.112;5.144;2024-03-29T14:55:54;1.20;;;0.90;;
66402;SDS011;53212;52.112;5.144;2024-03-29T14:58:19;1.50;;;0.90;;